Roswell International Air Center Airport
KROW : now visible

Airfield :











YOU CAN JOIN US ON...

 
LOGIN :

Register | Disclaimer

   EN    FR    IT 

 









Legend :    VFR   Marginal VFR   IFR   Intensive IFR   Very Intensive IFR
Visi :
Ceiling :
>= 8 km
>= 3000ft
5 to 8 km
1000 to 3000 ft
1500m to 5 km
500 to 1000 ft
800 to 1500m
200 to 500 ft
< 800m
< 200 ft
Symbols :   Thunderstorms  Fog  Heavy snow  Heavy precipitations  Wind > 20 kt







- Airport Elevation : 3671 ft
- IATA code : ROW


KROW - Roswell International Air Center

CURRENT METAR :
  • 181151Z 26004KT 10SM CLR 18/11 A3000 RMK AO2 SLP098 T01830106 10217 20172 55000

EXPIRED METARs :
  • 181051Z AUTO 00000KT 10SM CLR 18/11 A3000 RMK AO2 SLP097 T01830111
  • 180951Z AUTO 00000KT 10SM CLR 19/11 A3000 RMK AO2 SLP097 T01940111

TAF KROW
Valid from the 18 at 12:00 until the 19 at 12:00 UTC


181120Z 1812/1912 VRB05KT P6SM SKC
FM182000 15009KT P6SM SCT100
FM190000 18007KT P6SM BKN120
No reported NOTAMs for that airfield.



MET'MAP, your aeronautical weather chart ! - Copyright ORBIFLY December 2007 - Disclaimer

ORBIFLY MET'MAP TEAM :

Programming & Development : Alexandra Zaïnal
Concept & Development : Baudouin d'Aumeries
Co-Development & Prog : Marc-Olivier Méhu
Technical & hardware support : Manuel Goepfert

Contact : metmap@orbifly.com




SOURCES & CREDITS :

   NOAA       Earth
Advisory